createdAt,value
2018-02-05T00:00:10.504Z,1.20
2018-02-05T00:02:38.636Z,1.20
2018-02-05T00:05:06.788Z,1.20
2018-02-05T00:07:34.909Z,1.20
2018-02-05T00:10:03.352Z,1.30
2018-02-05T00:12:32.239Z,1.20
2018-02-05T00:15:00.389Z,1.20
2018-02-05T00:17:28.518Z,1.30
2018-02-05T00:19:56.669Z,1.20
2018-02-05T00:22:24.799Z,1.30
2018-02-05T00:24:52.941Z,1.20
2018-02-05T00:27:21.840Z,1.30
2018-02-05T00:29:49.986Z,1.30
2018-02-05T00:32:18.105Z,1.30
2018-02-05T00:34:46.257Z,1.30
2018-02-05T00:37:14.381Z,1.30
2018-02-05T00:39:42.526Z,1.30
2018-02-05T00:42:10.651Z,1.30
2018-02-05T00:44:38.804Z,1.30
2018-02-05T00:47:08.111Z,1.30
2018-02-05T00:49:37.030Z,1.30
2018-02-05T00:52:05.154Z,1.50
2018-02-05T00:54:33.309Z,1.30
2018-02-05T00:57:01.429Z,1.30
2018-02-05T00:59:29.576Z,1.30
2018-02-05T01:01:57.702Z,1.30
2018-02-05T01:04:25.849Z,1.30
2018-02-05T01:06:53.973Z,1.30
2018-02-05T01:09:22.164Z,1.30
2018-02-05T01:11:50.292Z,1.20
2018-02-05T01:14:18.446Z,1.30
2018-02-05T01:16:46.566Z,1.20
2018-02-05T01:19:14.717Z,1.20
2018-02-05T01:21:42.849Z,1.20
2018-02-05T01:24:10.996Z,1.20
2018-02-05T01:26:39.115Z,1.20
2018-02-05T01:29:07.271Z,1.20
2018-02-05T01:31:35.399Z,1.20
2018-02-05T01:34:03.525Z,1.20
2018-02-05T01:36:31.681Z,1.20
2018-02-05T01:39:00.573Z,1.10
2018-02-05T01:41:28.730Z,1.10
2018-02-05T01:43:56.858Z,1.20
2018-02-05T01:46:25.018Z,1.20
2018-02-05T01:48:53.146Z,1.20
2018-02-05T01:51:21.297Z,1.20
2018-02-05T01:53:49.419Z,1.20
2018-02-05T01:56:18.341Z,1.20
2018-02-05T01:58:46.464Z,1.10
2018-02-05T02:01:14.630Z,1.20
2018-02-05T02:03:42.752Z,1.20
2018-02-05T02:06:10.905Z,1.10
2018-02-05T02:08:39.030Z,1.10
2018-02-05T02:11:07.182Z,1.10
2018-02-05T02:13:35.304Z,1.10
2018-02-05T02:16:03.454Z,1.10
2018-02-05T02:18:31.590Z,1.00
2018-02-05T02:20:59.733Z,1.10
2018-02-05T02:23:28.624Z,1.00
2018-02-05T02:25:56.775Z,1.00
2018-02-05T02:28:24.896Z,1.00
2018-02-05T02:30:53.053Z,1.00
2018-02-05T02:33:21.174Z,1.00
2018-02-05T02:35:49.330Z,1.00
2018-02-05T02:38:17.450Z,1.00
2018-02-05T02:40:45.612Z,0.90
2018-02-05T02:43:13.786Z,0.90
2018-02-05T02:45:41.913Z,0.90
2018-02-05T02:48:10.038Z,0.90
2018-02-05T02:50:38.189Z,0.90
2018-02-05T02:53:06.310Z,0.90
2018-02-05T02:55:34.461Z,0.90
2018-02-05T02:58:02.593Z,0.90
2018-02-05T03:00:30.742Z,0.90
2018-02-05T03:02:58.876Z,0.90
2018-02-05T03:05:27.025Z,0.90
2018-02-05T03:07:55.146Z,0.80
2018-02-05T03:10:23.296Z,0.80
2018-02-05T03:12:51.417Z,0.80
2018-02-05T03:15:19.657Z,0.80
2018-02-05T03:17:47.773Z,0.80
2018-02-05T03:20:15.929Z,0.80
2018-02-05T03:22:44.058Z,0.80
2018-02-05T03:25:12.201Z,0.80
2018-02-05T03:27:40.322Z,0.80
2018-02-05T03:30:08.478Z,0.80
2018-02-05T03:32:36.592Z,0.80
2018-02-05T03:35:04.745Z,0.80
2018-02-05T03:37:32.865Z,0.80
2018-02-05T03:40:01.012Z,0.70
2018-02-05T03:42:29.139Z,0.70
2018-02-05T03:44:57.293Z,0.80
2018-02-05T03:47:25.418Z,0.70
2018-02-05T03:49:53.601Z,0.70
2018-02-05T03:52:21.716Z,0.70
2018-02-05T03:54:49.837Z,0.70
2018-02-05T03:57:18.758Z,0.70
2018-02-05T03:59:46.889Z,0.90
2018-02-05T04:02:15.038Z,0.80
2018-02-05T04:04:43.160Z,0.70
2018-02-05T04:07:16.157Z,0.60
2018-02-05T04:09:44.276Z,0.60
2018-02-05T04:12:12.435Z,0.60
2018-02-05T04:14:40.561Z,0.60
2018-02-05T04:17:09.472Z,0.60
2018-02-05T04:19:37.596Z,0.70
2018-02-05T04:22:05.752Z,0.60
2018-02-05T04:24:33.876Z,0.60
2018-02-05T04:27:02.057Z,0.60
2018-02-05T04:29:30.173Z,0.60
2018-02-05T04:31:58.322Z,0.60
2018-02-05T04:34:26.450Z,0.60
2018-02-05T04:36:54.611Z,0.60
2018-02-05T04:39:22.728Z,0.60
2018-02-05T04:41:50.880Z,0.60
2018-02-05T04:44:19.774Z,0.60
2018-02-05T04:46:47.919Z,0.50
2018-02-05T04:49:16.046Z,0.50
2018-02-05T04:51:44.225Z,0.50
2018-02-05T04:54:12.349Z,0.60
2018-02-05T04:56:40.501Z,0.60
2018-02-05T04:59:08.620Z,0.60
2018-02-05T05:01:36.768Z,0.60
2018-02-05T05:04:04.889Z,0.60
2018-02-05T05:06:33.034Z,0.60
2018-02-05T05:09:01.168Z,0.60
2018-02-05T05:11:29.322Z,0.60
2018-02-05T05:13:57.446Z,0.60
2018-02-05T05:16:25.601Z,0.60
2018-02-05T05:18:53.727Z,0.60
2018-02-05T05:21:22.066Z,0.60
2018-02-05T05:23:50.188Z,0.60
2018-02-05T05:26:18.336Z,0.60
2018-02-05T05:28:46.457Z,0.60
2018-02-05T05:31:14.610Z,0.60
2018-02-05T05:33:42.738Z,0.60
2018-02-05T05:36:10.875Z,0.60
2018-02-05T05:38:39.000Z,0.60
2018-02-05T05:41:07.150Z,0.50
2018-02-05T05:43:35.274Z,0.60
2018-02-05T05:46:03.429Z,0.60
2018-02-05T05:48:31.552Z,0.60
2018-02-05T05:50:59.707Z,0.60
2018-02-05T05:53:27.831Z,0.80
2018-02-05T05:55:55.976Z,0.60
2018-02-05T05:58:24.100Z,0.60
2018-02-05T06:00:52.352Z,0.60
2018-02-05T06:03:20.485Z,0.60
2018-02-05T06:05:48.650Z,0.60
2018-02-05T06:08:16.775Z,0.60
2018-02-05T06:10:44.922Z,0.50
2018-02-05T06:13:13.045Z,0.50
2018-02-05T06:15:41.211Z,0.50
2018-02-05T06:18:09.339Z,0.50
2018-02-05T06:20:37.489Z,0.50
2018-02-05T06:23:05.639Z,0.50
2018-02-05T06:25:33.756Z,0.50
2018-02-05T06:28:01.906Z,0.50
2018-02-05T06:30:30.027Z,0.50
2018-02-05T06:32:58.956Z,0.40
2018-02-05T06:35:27.082Z,0.40
2018-02-05T06:37:55.999Z,0.40
2018-02-05T06:40:24.139Z,0.40
2018-02-05T06:42:53.054Z,0.40
2018-02-05T06:45:21.179Z,0.40
2018-02-05T06:47:49.331Z,0.40
2018-02-05T06:50:29.115Z,0.40
2018-02-05T06:53:08.983Z,0.40
2018-02-05T06:55:46.847Z,0.40
2018-02-05T06:58:15.011Z,0.40
2018-02-05T07:00:43.131Z,0.40
2018-02-05T07:03:12.058Z,0.40
2018-02-05T07:05:40.949Z,0.40
2018-02-05T07:08:09.106Z,0.30
2018-02-05T07:10:37.237Z,0.40
2018-02-05T07:13:05.390Z,0.30
2018-02-05T07:15:33.533Z,0.40
2018-02-05T07:18:01.693Z,0.40
2018-02-05T07:20:29.809Z,0.40
2018-02-05T07:22:57.981Z,0.40
2018-02-05T07:25:26.163Z,0.40
2018-02-05T07:27:54.306Z,0.40
2018-02-05T07:30:22.758Z,0.40
2018-02-05T07:32:51.676Z,0.50
2018-02-05T07:35:19.807Z,0.40
2018-02-05T07:37:47.965Z,0.50
2018-02-05T07:40:16.091Z,0.50
2018-02-05T07:42:44.238Z,0.50
2018-02-05T07:45:12.361Z,0.50
2018-02-05T07:47:40.545Z,0.60
2018-02-05T07:50:08.674Z,0.60
2018-02-05T07:52:36.824Z,0.70
2018-02-05T07:55:04.958Z,0.70
2018-02-05T07:57:33.113Z,0.70
2018-02-05T08:00:01.252Z,0.80
2018-02-05T08:02:29.407Z,0.80
2018-02-05T08:04:57.533Z,0.90
2018-02-05T08:07:26.446Z,0.90
2018-02-05T08:09:54.566Z,0.80
2018-02-05T08:12:22.710Z,0.80
2018-02-05T08:14:50.824Z,0.80
2018-02-05T08:17:18.978Z,0.90
2018-02-05T08:19:47.096Z,0.90
2018-02-05T08:22:15.241Z,1.00
2018-02-05T08:24:43.364Z,1.00
2018-02-05T08:27:11.512Z,1.10
2018-02-05T08:29:39.632Z,1.20
2018-02-05T08:32:07.801Z,1.30
2018-02-05T08:34:35.925Z,1.40
2018-02-05T08:37:04.049Z,1.50
2018-02-05T08:39:32.206Z,1.60
2018-02-05T08:42:00.329Z,1.70
2018-02-05T08:44:28.490Z,1.80
2018-02-05T08:46:56.616Z,1.80
2018-02-05T08:49:24.764Z,1.90
2018-02-05T08:51:52.894Z,1.90
2018-02-05T08:54:21.047Z,2.00
2018-02-05T08:56:49.173Z,2.10
2018-02-05T08:59:17.334Z,2.10
2018-02-05T09:01:45.471Z,2.10
2018-02-05T09:04:13.620Z,2.20
2018-02-05T09:06:41.745Z,2.20
2018-02-05T09:09:09.900Z,2.20
2018-02-05T09:11:38.018Z,2.20
2018-02-05T09:14:06.182Z,2.20
2018-02-05T09:16:34.305Z,2.30
2018-02-05T09:19:02.463Z,2.30
2018-02-05T09:21:30.584Z,2.30
2018-02-05T09:23:59.505Z,2.60
2018-02-05T09:26:27.625Z,2.60
2018-02-05T09:28:55.773Z,2.70
2018-02-05T09:31:23.894Z,2.90
2018-02-05T09:33:52.064Z,3.00
2018-02-05T09:36:20.194Z,3.00
2018-02-05T09:38:48.346Z,3.00
2018-02-05T09:41:16.475Z,3.00
2018-02-05T09:43:44.629Z,3.00
2018-02-05T09:46:12.754Z,3.10
2018-02-05T09:48:40.909Z,3.10
2018-02-05T09:51:09.026Z,3.20
2018-02-05T09:53:37.179Z,3.20
2018-02-05T09:56:05.321Z,3.30
2018-02-05T09:58:33.465Z,3.40
2018-02-05T10:01:01.627Z,3.40
2018-02-05T10:03:29.771Z,3.50
2018-02-05T10:05:57.887Z,3.50
2018-02-05T10:08:26.070Z,3.50
2018-02-05T10:10:54.193Z,3.40
2018-02-05T10:13:22.348Z,3.30
2018-02-05T10:15:50.474Z,3.30
2018-02-05T10:18:18.630Z,3.30
2018-02-05T10:20:46.754Z,3.30
2018-02-05T10:23:15.670Z,3.40
2018-02-05T10:25:43.788Z,3.40
2018-02-05T10:28:11.940Z,3.40
2018-02-05T10:30:40.074Z,3.50
2018-02-05T10:33:08.253Z,3.50
2018-02-05T10:35:36.382Z,3.60
2018-02-05T10:38:04.536Z,3.80
2018-02-05T10:40:32.699Z,3.70
2018-02-05T10:43:00.889Z,3.90
2018-02-05T10:45:29.010Z,4.00
2018-02-05T10:47:57.930Z,4.00
2018-02-05T10:50:26.049Z,3.90
2018-02-05T10:52:54.205Z,4.00
2018-02-05T10:55:23.205Z,3.90
2018-02-05T10:57:51.362Z,3.90
2018-02-05T11:00:19.509Z,3.90
2018-02-05T11:02:47.626Z,4.00
2018-02-05T11:05:15.773Z,4.00
2018-02-05T11:07:43.897Z,4.00
2018-02-05T11:10:12.060Z,3.80
2018-02-05T11:12:40.177Z,3.80
2018-02-05T11:15:08.331Z,3.60
2018-02-05T11:17:37.214Z,3.30
2018-02-05T11:20:05.360Z,3.20
2018-02-05T11:22:33.498Z,3.00
2018-02-05T11:25:01.659Z,2.90
2018-02-05T11:27:29.777Z,2.60
2018-02-05T11:29:57.929Z,2.40
2018-02-05T11:32:26.089Z,2.30
2018-02-05T11:34:54.242Z,2.30
2018-02-05T11:37:22.360Z,2.20
2018-02-05T11:39:50.510Z,2.10
2018-02-05T11:42:18.640Z,2.20
2018-02-05T11:44:47.558Z,2.10
2018-02-05T11:47:15.686Z,2.10
2018-02-05T11:49:43.843Z,2.10
2018-02-05T11:52:11.965Z,2.00
2018-02-05T11:54:40.116Z,2.00
2018-02-05T11:57:08.237Z,2.00
2018-02-05T11:59:36.396Z,2.00
2018-02-05T12:02:04.523Z,2.00
2018-02-05T12:04:32.669Z,2.00
2018-02-05T12:07:00.798Z,2.00
2018-02-05T12:09:28.953Z,2.00
2018-02-05T12:11:57.082Z,2.00
2018-02-05T12:14:25.228Z,1.90
2018-02-05T12:16:53.388Z,1.90
2018-02-05T12:19:21.524Z,1.80
2018-02-05T12:21:49.660Z,1.80
2018-02-05T12:24:17.826Z,1.90
2018-02-05T12:26:45.958Z,1.90
2018-02-05T12:29:14.129Z,2.00
2018-02-05T12:31:42.262Z,2.10
2018-02-05T12:34:10.428Z,2.10
2018-02-05T12:36:38.548Z,2.10
2018-02-05T12:39:06.714Z,2.10
2018-02-05T12:41:34.842Z,2.10
2018-02-05T12:44:02.999Z,2.10
2018-02-05T12:46:31.117Z,2.10
2018-02-05T12:48:59.264Z,2.10
2018-02-05T12:51:27.386Z,2.10
2018-02-05T12:53:55.527Z,2.10
2018-02-05T12:56:23.653Z,2.10
2018-02-05T12:58:51.808Z,2.10
2018-02-05T13:01:36.729Z,2.10
2018-02-05T13:04:06.385Z,2.00
2018-02-05T13:06:45.198Z,2.00
2018-02-05T13:09:13.352Z,2.00
2018-02-05T13:11:42.254Z,1.90
2018-02-05T13:14:10.407Z,1.90
2018-02-05T13:16:38.538Z,1.90
2018-02-05T13:19:07.453Z,1.70
2018-02-05T13:21:35.581Z,1.80
2018-02-05T13:24:03.732Z,1.60
2018-02-05T13:26:31.865Z,1.50
2018-02-05T13:29:00.024Z,1.50
2018-02-05T13:31:28.142Z,1.60
2018-02-05T13:33:57.066Z,1.90
2018-02-05T13:36:25.189Z,1.90
2018-02-05T13:38:53.346Z,2.10
2018-02-05T13:41:21.484Z,2.20
2018-02-05T13:43:49.633Z,2.20
2018-02-05T13:46:17.785Z,2.20
2018-02-05T13:48:45.911Z,2.40
2018-02-05T13:51:14.052Z,2.50
2018-02-05T13:53:42.180Z,2.50
2018-02-05T13:56:10.353Z,2.50
2018-02-05T13:58:38.478Z,2.60
2018-02-05T14:01:06.626Z,2.60
2018-02-05T14:03:34.758Z,2.50
2018-02-05T14:06:02.929Z,2.50
2018-02-05T14:08:31.069Z,2.40
2018-02-05T14:10:59.213Z,2.50
2018-02-05T14:13:27.358Z,2.50
2018-02-05T14:15:55.502Z,2.50
2018-02-05T14:18:23.626Z,2.50
2018-02-05T14:20:51.771Z,2.50
2018-02-05T14:23:19.896Z,2.60
2018-02-05T14:25:48.050Z,2.40
2018-02-05T14:28:16.221Z,2.40
2018-02-05T14:30:45.172Z,2.20
2018-02-05T14:33:13.300Z,2.20
2018-02-05T14:35:41.450Z,2.10
2018-02-05T14:38:10.336Z,2.00
2018-02-05T14:40:38.494Z,1.90
2018-02-05T14:43:06.622Z,1.90
2018-02-05T14:45:34.796Z,1.90
2018-02-05T14:48:02.917Z,1.90
2018-02-05T14:50:31.068Z,1.90
2018-02-05T14:52:59.198Z,1.80
2018-02-05T14:55:27.336Z,1.80
2018-02-05T14:57:55.463Z,1.80
2018-02-05T15:00:23.608Z,1.70
2018-02-05T15:02:51.732Z,1.70
2018-02-05T15:05:19.886Z,1.60
2018-02-05T15:07:48.007Z,1.60
2018-02-05T15:10:16.155Z,1.50
2018-02-05T15:12:44.273Z,1.40
2018-02-05T15:15:12.421Z,1.30
2018-02-05T15:17:41.376Z,1.20
2018-02-05T15:20:09.564Z,1.20
2018-02-05T15:22:37.738Z,1.20
2018-02-05T15:25:05.914Z,1.10
2018-02-05T15:27:34.031Z,1.00
2018-02-05T15:30:02.190Z,1.00
2018-02-05T15:32:30.319Z,1.00
2018-02-05T15:34:58.470Z,1.00
2018-02-05T15:37:27.637Z,0.90
2018-02-05T15:39:55.805Z,0.90
2018-02-05T15:42:23.923Z,0.90
2018-02-05T15:44:52.137Z,0.90
2018-02-05T15:47:20.252Z,0.80
2018-02-05T15:49:48.400Z,0.80
2018-02-05T15:52:16.526Z,0.80
2018-02-05T15:54:44.674Z,0.80
2018-02-05T15:57:12.796Z,0.70
2018-02-05T15:59:40.953Z,0.70
2018-02-05T16:02:09.074Z,0.60
2018-02-05T16:04:37.201Z,0.60
2018-02-05T16:07:05.351Z,0.60
2018-02-05T16:09:33.490Z,0.50
2018-02-05T16:12:01.647Z,0.50
2018-02-05T16:14:29.774Z,0.50
2018-02-05T16:16:57.925Z,0.50
2018-02-05T16:19:26.050Z,0.50
2018-02-05T16:21:54.206Z,0.40
2018-02-05T16:24:22.323Z,0.40
2018-02-05T16:26:50.486Z,0.40
2018-02-05T16:29:19.375Z,0.40
2018-02-05T16:31:47.526Z,0.50
2018-02-05T16:34:15.646Z,0.40
2018-02-05T16:36:43.807Z,0.40
2018-02-05T16:39:11.926Z,0.40
2018-02-05T16:41:40.090Z,0.40
2018-02-05T16:44:08.214Z,0.30
2018-02-05T16:46:36.365Z,0.30
2018-02-05T16:49:04.498Z,0.30
2018-02-05T16:51:32.646Z,0.30
2018-02-05T16:54:00.780Z,0.30
2018-02-05T16:56:28.938Z,0.30
2018-02-05T16:58:57.067Z,0.30
2018-02-05T17:01:25.263Z,0.30
2018-02-05T17:03:53.390Z,0.30
2018-02-05T17:06:21.538Z,0.30
2018-02-05T17:08:49.665Z,0.20
2018-02-05T17:11:17.820Z,0.20
2018-02-05T17:13:45.946Z,0.20
2018-02-05T17:16:14.102Z,0.20
2018-02-05T17:18:42.228Z,0.20
2018-02-05T17:21:10.390Z,0.20
2018-02-05T17:23:38.508Z,0.20
2018-02-05T17:26:06.657Z,0.20
2018-02-05T17:28:34.785Z,0.20
2018-02-05T17:31:02.949Z,0.20
2018-02-05T17:33:31.076Z,0.20
2018-02-05T17:35:59.225Z,0.20
2018-02-05T17:38:27.347Z,0.20
2018-02-05T17:40:56.262Z,0.20
2018-02-05T17:43:24.381Z,0.30
2018-02-05T17:45:52.529Z,0.20
2018-02-05T17:48:20.654Z,0.10
2018-02-05T17:50:48.918Z,0.10
2018-02-05T17:53:17.151Z,0.10
2018-02-05T17:55:45.494Z,0.10
2018-02-05T17:58:14.151Z,0.00
2018-02-05T18:00:42.514Z,0.00
2018-02-05T18:03:10.808Z,0.00
2018-02-05T18:05:40.147Z,-0.10
2018-02-05T18:08:08.838Z,0.00
2018-02-05T18:10:38.474Z,-0.10
2018-02-05T18:13:06.613Z,-0.10
2018-02-05T18:15:34.793Z,-0.10
2018-02-05T18:18:02.921Z,-0.20
2018-02-05T18:20:31.085Z,-0.20
2018-02-05T18:22:59.219Z,-0.20
2018-02-05T18:25:27.364Z,-0.30
2018-02-05T18:27:55.513Z,-0.30
2018-02-05T18:30:24.435Z,-0.30
2018-02-05T18:32:52.648Z,-0.40
2018-02-05T18:35:20.794Z,-0.30
2018-02-05T18:37:49.037Z,-0.30
2018-02-05T18:40:17.942Z,-0.20
2018-02-05T18:42:46.117Z,-0.20
2018-02-05T18:45:14.244Z,-0.40
2018-02-05T18:47:42.431Z,-0.30
2018-02-05T18:50:10.583Z,-0.40
2018-02-05T18:52:38.749Z,-0.30
2018-02-05T18:55:06.879Z,-0.30
2018-02-05T18:57:35.055Z,-0.30
2018-02-05T19:00:14.999Z,-0.30
2018-02-05T19:02:43.158Z,-0.30
2018-02-05T19:05:11.298Z,-0.30
2018-02-05T19:07:39.505Z,-0.30
2018-02-05T19:10:07.654Z,-0.30
2018-02-05T19:12:35.800Z,-0.30
2018-02-05T19:15:03.944Z,-0.30
2018-02-05T19:17:32.891Z,-0.20
2018-02-05T19:20:01.030Z,-0.20
2018-02-05T19:22:29.195Z,-0.20
2018-02-05T19:24:57.341Z,-0.20
2018-02-05T19:27:25.495Z,-0.20
2018-02-05T19:29:53.642Z,-0.20
2018-02-05T19:32:22.022Z,-0.20
2018-02-05T19:34:50.242Z,-0.20
2018-02-05T19:37:18.401Z,-0.20
2018-02-05T19:39:46.648Z,-0.30
2018-02-05T19:42:14.836Z,-0.20
2018-02-05T19:44:42.970Z,-0.30
2018-02-05T19:47:11.121Z,-0.30
2018-02-05T19:49:39.330Z,-0.30
2018-02-05T19:52:07.540Z,-0.30
2018-02-05T19:54:35.861Z,-0.30
2018-02-05T19:57:04.018Z,-0.20
2018-02-05T19:59:32.248Z,-0.40
2018-02-05T20:02:00.438Z,-0.40
2018-02-05T20:04:28.605Z,-0.40
2018-02-05T20:06:56.768Z,-0.40
2018-02-05T20:09:24.991Z,-0.40
2018-02-05T20:11:53.682Z,-0.50
2018-02-05T20:14:22.011Z,-0.50
2018-02-05T20:16:50.602Z,-0.50
2018-02-05T20:19:18.796Z,-0.50
2018-02-05T20:21:47.372Z,-0.30
2018-02-05T20:24:15.905Z,-0.60
2018-02-05T20:26:44.534Z,-0.60
2018-02-05T20:29:12.985Z,-0.60
2018-02-05T20:31:42.021Z,-0.60
2018-02-05T20:34:10.853Z,-0.60
2018-02-05T20:36:39.112Z,-0.60
2018-02-05T20:39:07.543Z,-0.70
2018-02-05T20:41:35.770Z,-0.70
2018-02-05T20:44:04.318Z,-0.70
2018-02-05T20:46:32.580Z,-0.80
2018-02-05T20:49:00.925Z,-0.80
2018-02-05T20:51:29.159Z,-1.00
2018-02-05T20:53:57.322Z,-0.90
2018-02-05T20:56:25.451Z,-0.80
2018-02-05T20:58:53.610Z,-1.00
2018-02-05T21:01:21.755Z,-1.00
2018-02-05T21:03:49.914Z,-1.00
2018-02-05T21:06:18.041Z,-0.90
2018-02-05T21:08:46.202Z,-1.10
2018-02-05T21:11:14.337Z,-1.10
2018-02-05T21:13:42.490Z,-1.20
2018-02-05T21:16:10.612Z,-1.30
2018-02-05T21:18:38.766Z,-1.20
2018-02-05T21:21:06.904Z,-1.20
2018-02-05T21:23:35.053Z,-1.20
2018-02-05T21:26:03.188Z,-1.20
2018-02-05T21:28:31.346Z,-1.30
2018-02-05T21:30:59.474Z,-1.20
2018-02-05T21:33:28.040Z,-1.30
2018-02-05T21:35:56.831Z,-1.30
2018-02-05T21:38:24.988Z,-1.30
2018-02-05T21:40:53.902Z,-1.30
2018-02-05T21:43:22.081Z,-1.30
2018-02-05T21:45:50.230Z,-1.40
2018-02-05T21:48:18.399Z,-1.30
2018-02-05T21:50:46.538Z,-1.30
2018-02-05T21:53:14.704Z,-1.30
2018-02-05T21:55:42.833Z,-1.30
2018-02-05T21:58:10.995Z,-1.30
2018-02-05T22:00:39.123Z,-1.20
2018-02-05T22:03:07.270Z,-1.20
2018-02-05T22:05:35.418Z,-1.20
2018-02-05T22:08:04.341Z,-1.20
2018-02-05T22:10:32.470Z,-1.10
2018-02-05T22:13:00.628Z,-1.20
2018-02-05T22:15:28.761Z,-1.00
2018-02-05T22:17:56.925Z,-1.20
2018-02-05T22:20:25.061Z,-1.20
2018-02-05T22:22:53.222Z,-1.20
2018-02-05T22:25:21.339Z,-1.30
2018-02-05T22:27:49.503Z,-1.20
2018-02-05T22:30:18.398Z,-1.30
2018-02-05T22:32:46.560Z,-1.20
2018-02-05T22:35:15.474Z,-1.30
2018-02-05T22:37:43.629Z,-1.30
2018-02-05T22:40:12.520Z,-1.40
2018-02-05T22:42:41.449Z,-1.40
2018-02-05T22:45:09.585Z,-1.40
2018-02-05T22:47:37.737Z,-1.50
2018-02-05T22:50:05.856Z,-1.50
2018-02-05T22:52:34.021Z,-1.50
2018-02-05T22:55:02.152Z,-1.50
2018-02-05T22:57:30.306Z,-1.60
2018-02-05T22:59:58.434Z,-1.50
2018-02-05T23:02:26.589Z,-1.60
2018-02-05T23:04:54.717Z,-1.60
2018-02-05T23:07:22.869Z,-1.60
2018-02-05T23:09:51.005Z,-1.70
2018-02-05T23:12:19.937Z,-1.70
2018-02-05T23:14:48.061Z,-1.70
2018-02-05T23:17:16.188Z,-1.70
2018-02-05T23:19:44.346Z,-1.70
2018-02-05T23:22:12.465Z,-1.80
2018-02-05T23:24:40.629Z,-1.80
2018-02-05T23:27:08.758Z,-1.80
2018-02-05T23:29:36.927Z,-1.80
2018-02-05T23:32:05.057Z,-1.80
2018-02-05T23:34:33.225Z,-1.90
2018-02-05T23:37:01.348Z,-1.90
2018-02-05T23:39:29.504Z,-1.90
2018-02-05T23:41:57.629Z,-1.80
2018-02-05T23:44:25.791Z,-2.10
2018-02-05T23:46:53.917Z,-2.10
2018-02-05T23:49:22.077Z,-2.10
2018-02-05T23:51:50.209Z,-2.20
2018-02-05T23:54:18.361Z,-2.20
2018-02-05T23:56:46.488Z,-2.20
2018-02-05T23:59:14.641Z,-2.10
